createdAt,value
2018-11-04T00:02:14.048Z,31.93
2018-11-04T00:04:45.319Z,32.60
2018-11-04T00:07:16.594Z,31.07
2018-11-04T00:09:48.413Z,29.27
2018-11-04T00:12:19.933Z,29.70
2018-11-04T00:14:51.375Z,28.13
2018-11-04T00:17:23.999Z,28.33
2018-11-04T00:19:55.772Z,26.97
2018-11-04T00:22:27.055Z,25.97
2018-11-04T00:24:58.562Z,25.27
2018-11-04T00:27:30.839Z,25.33
2018-11-04T00:30:02.930Z,26.27
2018-11-04T00:32:33.962Z,24.97
2018-11-04T00:35:05.951Z,25.30
2018-11-04T00:37:38.021Z,25.03
2018-11-04T00:40:10.676Z,23.73
2018-11-04T00:42:42.031Z,25.17
2018-11-04T00:45:17.879Z,25.83
2018-11-04T00:47:49.660Z,26.07
2018-11-04T00:50:25.344Z,25.50
2018-11-04T00:52:56.741Z,26.03
2018-11-04T00:55:28.509Z,25.70
2018-11-04T00:58:00.533Z,25.60
2018-11-04T01:00:32.465Z,25.70
2018-11-04T01:03:04.084Z,25.53
2018-11-04T01:05:36.130Z,25.27
2018-11-04T01:08:08.823Z,24.33
2018-11-04T01:10:40.191Z,23.60
2018-11-04T01:13:12.203Z,23.73
2018-11-04T01:15:43.735Z,24.43
2018-11-04T01:18:15.122Z,22.50
2018-11-04T01:20:46.549Z,22.53
2018-11-04T01:23:18.700Z,23.27
2018-11-04T01:25:51.156Z,23.50
2018-11-04T01:28:22.668Z,23.20
2018-11-04T01:30:53.299Z,22.30
2018-11-04T01:33:28.066Z,21.73
2018-11-04T01:36:00.189Z,22.47
2018-11-04T01:38:31.713Z,22.07
2018-11-04T01:41:07.269Z,21.80
2018-11-04T01:43:39.454Z,21.70
2018-11-04T01:46:11.877Z,21.77
2018-11-04T01:48:43.557Z,21.70
2018-11-04T01:51:15.052Z,22.23
2018-11-04T01:53:46.997Z,20.23
2018-11-04T01:56:18.369Z,19.50
2018-11-04T01:58:49.724Z,19.77
2018-11-04T02:01:22.104Z,20.73
2018-11-04T02:03:54.123Z,20.27
2018-11-04T02:06:25.724Z,20.53
2018-11-04T02:08:57.601Z,20.23
2018-11-04T02:11:29.926Z,19.77
2018-11-04T02:14:02.257Z,19.77
2018-11-04T02:16:33.030Z,20.40
2018-11-04T02:19:04.529Z,20.07
2018-11-04T02:21:36.625Z,19.37
2018-11-04T02:24:08.618Z,19.27
2018-11-04T02:26:39.795Z,18.10
2018-11-04T02:29:11.111Z,18.37
2018-11-04T02:31:42.761Z,18.93
2018-11-04T02:34:14.182Z,18.30
2018-11-04T02:36:45.540Z,18.97
2018-11-04T02:39:17.755Z,18.73
2018-11-04T02:41:49.802Z,17.73
2018-11-04T02:44:20.813Z,18.33
2018-11-04T02:46:52.134Z,18.77
2018-11-04T02:49:24.361Z,18.90
2018-11-04T02:51:56.749Z,20.10
2018-11-04T02:54:28.443Z,18.67
2018-11-04T02:56:59.883Z,18.50
2018-11-04T02:59:32.051Z,18.70
2018-11-04T03:02:04.376Z,18.93
2018-11-04T03:04:35.584Z,18.77
2018-11-04T03:07:07.115Z,19.13
2018-11-04T03:09:39.223Z,18.37
2018-11-04T03:12:11.116Z,18.77
2018-11-04T03:14:42.861Z,19.27
2018-11-04T03:17:15.070Z,18.23
2018-11-04T03:19:47.193Z,18.33
2018-11-04T03:22:18.537Z,18.03
2018-11-04T03:24:49.930Z,17.70
2018-11-04T03:27:22.134Z,17.60
2018-11-04T03:29:54.320Z,18.20
2018-11-04T03:32:25.700Z,19.33
2018-11-04T03:34:57.262Z,17.87
2018-11-04T03:37:29.106Z,19.67
2018-11-04T03:40:01.403Z,19.70
2018-11-04T03:42:32.655Z,20.97
2018-11-04T03:45:04.540Z,20.27
2018-11-04T03:47:36.753Z,21.43
2018-11-04T03:50:10.422Z,21.33
2018-11-04T03:52:42.417Z,21.20
2018-11-04T03:55:13.816Z,20.17
2018-11-04T03:57:45.832Z,19.80
2018-11-04T04:00:17.953Z,20.50
2018-11-04T04:02:49.200Z,19.83
2018-11-04T04:05:21.331Z,19.60
2018-11-04T04:07:53.431Z,19.20
2018-11-04T04:10:24.713Z,19.53
2018-11-04T04:12:56.063Z,18.70
2018-11-04T04:15:28.309Z,19.20
2018-11-04T04:18:00.246Z,19.57
2018-11-04T04:20:31.415Z,18.57
2018-11-04T04:23:03.005Z,19.23
2018-11-04T04:25:40.405Z,18.90
2018-11-04T04:28:12.145Z,19.30
2018-11-04T04:30:43.560Z,20.00
2018-11-04T04:33:15.071Z,19.47
2018-11-04T04:35:47.151Z,19.13
2018-11-04T04:38:18.661Z,19.90
2018-11-04T04:40:54.529Z,20.70
2018-11-04T04:43:26.604Z,20.27
2018-11-04T04:45:58.613Z,20.40
2018-11-04T04:48:29.992Z,20.30
2018-11-04T04:51:01.398Z,20.40
2018-11-04T04:53:33.928Z,20.03
2018-11-04T04:56:06.810Z,20.27
2018-11-04T04:58:38.092Z,19.13
2018-11-04T05:01:11.302Z,19.73
2018-11-04T05:03:43.260Z,20.97
2018-11-04T05:06:15.160Z,20.30
2018-11-04T05:08:46.618Z,19.80
2018-11-04T05:11:18.798Z,19.13
2018-11-04T05:13:50.888Z,20.57
2018-11-04T05:16:22.589Z,19.43
2018-11-04T05:18:54.020Z,20.33
2018-11-04T05:21:25.974Z,20.07
2018-11-04T05:23:58.088Z,20.47
2018-11-04T05:26:29.401Z,18.90
2018-11-04T05:29:00.938Z,18.90
2018-11-04T05:31:33.406Z,19.73
2018-11-04T05:34:05.683Z,19.07
2018-11-04T05:36:37.181Z,19.13
2018-11-04T05:39:10.332Z,18.23
2018-11-04T05:41:42.343Z,18.40
2018-11-04T05:44:15.116Z,19.90
2018-11-04T05:46:46.321Z,19.20
2018-11-04T05:49:18.450Z,18.53
2018-11-04T05:51:50.416Z,18.77
2018-11-04T05:54:21.959Z,19.23
2018-11-04T05:56:53.198Z,19.60
2018-11-04T05:59:25.328Z,19.97
2018-11-04T06:01:57.415Z,19.77
2018-11-04T06:04:28.711Z,19.00
2018-11-04T06:06:59.925Z,19.77
2018-11-04T06:09:32.033Z,19.10
2018-11-04T06:12:04.032Z,19.10
2018-11-04T06:14:35.543Z,21.53
2018-11-04T06:17:06.814Z,19.27
2018-11-04T06:19:39.125Z,19.63
2018-11-04T06:22:11.033Z,19.17
2018-11-04T06:24:42.634Z,19.07
2018-11-04T06:27:14.817Z,18.87
2018-11-04T06:29:46.984Z,19.07
2018-11-04T06:32:18.060Z,21.23
2018-11-04T06:34:49.476Z,21.37
2018-11-04T06:37:21.673Z,20.77
2018-11-04T06:39:53.768Z,20.93
2018-11-04T06:42:25.544Z,21.60
2018-11-04T06:44:57.428Z,21.30
2018-11-04T06:47:29.857Z,22.63
2018-11-04T06:50:02.313Z,20.97
2018-11-04T06:52:33.551Z,21.63
2018-11-04T06:55:05.353Z,21.83
2018-11-04T06:57:37.577Z,21.40
2018-11-04T07:00:11.413Z,21.07
2018-11-04T07:02:42.824Z,20.90
2018-11-04T07:05:15.513Z,20.23
2018-11-04T07:07:47.613Z,19.90
2018-11-04T07:10:20.108Z,20.30
2018-11-04T07:12:51.590Z,19.80
2018-11-04T07:15:23.690Z,20.13
2018-11-04T07:17:55.827Z,19.17
2018-11-04T07:20:27.285Z,19.70
2018-11-04T07:22:58.985Z,20.33
2018-11-04T07:25:31.966Z,19.10
2018-11-04T07:28:04.319Z,20.47
2018-11-04T07:30:35.777Z,20.37
2018-11-04T07:33:07.261Z,19.77
2018-11-04T07:35:39.664Z,19.90
2018-11-04T07:38:11.380Z,20.70
2018-11-04T07:40:44.595Z,18.17
2018-11-04T07:43:16.712Z,18.93
2018-11-04T07:45:50.484Z,18.20
2018-11-04T07:48:21.953Z,17.63
2018-11-04T07:50:53.478Z,17.77
2018-11-04T07:53:25.759Z,18.00
2018-11-04T07:55:57.942Z,17.30
2018-11-04T07:58:29.695Z,15.90
2018-11-04T08:01:01.352Z,18.03
2018-11-04T08:03:33.555Z,16.07
2018-11-04T08:06:05.919Z,15.30
2018-11-04T08:08:37.531Z,15.77
2018-11-04T08:11:09.088Z,15.83
2018-11-04T08:13:40.990Z,14.63
2018-11-04T08:16:13.842Z,14.50
2018-11-04T08:18:45.379Z,13.97
2018-11-04T08:21:17.758Z,14.03
2018-11-04T08:23:50.144Z,12.70
2018-11-04T08:26:21.695Z,12.27
2018-11-04T08:28:53.401Z,8.27
2018-11-04T08:31:25.751Z,7.40
2018-11-04T08:33:57.575Z,8.13
2018-11-04T08:36:29.281Z,6.90
2018-11-04T08:39:00.667Z,6.90
2018-11-04T08:41:32.590Z,6.77
2018-11-04T08:44:04.983Z,8.00
2018-11-04T08:46:37.371Z,7.20
2018-11-04T08:49:08.963Z,7.23
2018-11-04T08:51:41.559Z,9.40
2018-11-04T08:54:13.267Z,6.80
2018-11-04T08:56:45.415Z,7.77
2018-11-04T08:59:19.294Z,7.13
2018-11-04T09:01:51.838Z,6.37
2018-11-04T09:04:23.980Z,14.80
2018-11-04T09:06:55.496Z,7.87
2018-11-04T09:09:27.770Z,6.93
2018-11-04T09:12:00.086Z,7.23
2018-11-04T09:14:31.527Z,7.40
2018-11-04T09:17:03.200Z,7.17
2018-11-04T09:19:35.204Z,6.67
2018-11-04T09:22:07.859Z,6.90
2018-11-04T09:24:40.450Z,6.63
2018-11-04T09:27:12.348Z,6.97
2018-11-04T09:29:44.779Z,6.97
2018-11-04T09:32:16.537Z,6.77
2018-11-04T09:34:49.316Z,5.97
2018-11-04T09:37:21.810Z,6.83
2018-11-04T09:39:54.013Z,6.33
2018-11-04T09:42:25.658Z,6.17
2018-11-04T09:44:57.117Z,6.40
2018-11-04T09:47:29.407Z,6.20
2018-11-04T09:50:01.189Z,5.87
2018-11-04T09:52:32.961Z,6.43
2018-11-04T09:55:04.417Z,6.80
2018-11-04T09:57:36.879Z,6.27
2018-11-04T10:00:10.869Z,6.47
2018-11-04T10:02:42.461Z,6.17
2018-11-04T10:05:14.644Z,6.20
2018-11-04T10:07:46.941Z,8.47
2018-11-04T10:10:17.919Z,7.87
2018-11-04T10:12:49.539Z,6.87
2018-11-04T10:15:21.311Z,7.87
2018-11-04T10:17:53.669Z,7.43
2018-11-04T10:20:25.544Z,7.93
2018-11-04T10:22:57.035Z,7.70
2018-11-04T10:25:30.019Z,7.13
2018-11-04T10:28:02.377Z,7.13
2018-11-04T10:30:33.967Z,6.30
2018-11-04T10:33:05.762Z,7.40
2018-11-04T10:35:37.937Z,7.80
2018-11-04T10:38:11.639Z,11.97
2018-11-04T10:40:43.083Z,8.43
2018-11-04T10:43:16.192Z,7.97
2018-11-04T10:45:48.757Z,7.60
2018-11-04T10:48:20.308Z,7.37
2018-11-04T10:50:51.787Z,8.10
2018-11-04T10:53:24.545Z,8.50
2018-11-04T10:55:56.845Z,10.17
2018-11-04T10:58:29.008Z,11.77
2018-11-04T11:01:09.608Z,9.00
2018-11-04T11:03:42.335Z,7.53
2018-11-04T11:06:14.964Z,9.03
2018-11-04T11:08:46.782Z,9.27
2018-11-04T11:11:18.884Z,8.83
2018-11-04T11:13:51.105Z,9.40
2018-11-04T11:16:22.802Z,9.03
2018-11-04T11:18:54.844Z,11.03
2018-11-04T11:21:27.154Z,13.77
2018-11-04T11:23:58.615Z,11.73
2018-11-04T11:26:30.377Z,10.40
2018-11-04T11:29:01.969Z,15.20
2018-11-04T11:31:34.192Z,10.03
2018-11-04T11:34:06.743Z,9.10
2018-11-04T11:36:38.505Z,9.50
2018-11-04T11:39:13.274Z,9.20
2018-11-04T11:41:45.699Z,10.07
2018-11-04T11:47:37.641Z,9.43
2018-11-04T11:50:09.699Z,8.83
2018-11-04T11:52:41.263Z,9.90
2018-11-04T11:55:13.073Z,9.00
2018-11-04T11:57:45.565Z,9.53
2018-11-04T12:00:16.363Z,11.40
2018-11-04T12:02:48.929Z,10.90
2018-11-04T12:05:21.225Z,10.67
2018-11-04T12:07:53.603Z,10.30
2018-11-04T12:10:26.344Z,10.60
2018-11-04T12:12:58.182Z,9.73
2018-11-04T12:15:30.456Z,9.37
2018-11-04T12:18:02.530Z,9.17
2018-11-04T12:20:35.393Z,12.43
2018-11-04T12:23:07.039Z,9.27
2018-11-04T12:25:39.539Z,9.37
2018-11-04T12:28:11.420Z,11.07
2018-11-04T12:30:43.051Z,10.03
2018-11-04T12:33:14.774Z,10.37
2018-11-04T12:35:46.840Z,10.33
2018-11-04T12:38:19.662Z,10.90
2018-11-04T12:40:51.285Z,10.07
2018-11-04T12:43:23.490Z,9.77
2018-11-04T12:45:55.902Z,9.47
2018-11-04T12:48:27.308Z,9.87
2018-11-04T12:50:58.922Z,9.97
2018-11-04T12:53:31.114Z,10.00
2018-11-04T12:56:03.764Z,11.40
2018-11-04T12:58:35.339Z,11.27
2018-11-04T13:01:07.072Z,11.13
2018-11-04T13:03:39.324Z,10.87
2018-11-04T13:06:16.614Z,11.40
2018-11-04T13:08:48.164Z,10.67
2018-11-04T13:11:20.385Z,13.20
2018-11-04T13:13:52.642Z,14.23
2018-11-04T13:16:24.200Z,12.10
2018-11-04T13:18:55.856Z,12.70
2018-11-04T13:21:28.577Z,13.40
2018-11-04T13:24:00.930Z,13.40
2018-11-04T13:26:32.730Z,13.97
2018-11-04T13:29:05.162Z,13.60
2018-11-04T13:31:37.940Z,14.07
2018-11-04T13:34:10.100Z,13.80
2018-11-04T13:36:42.329Z,13.30
2018-11-04T13:39:13.589Z,13.93
2018-11-04T13:41:47.002Z,12.83
2018-11-04T13:44:18.777Z,12.50
2018-11-04T13:46:50.505Z,17.77
2018-11-04T13:49:22.703Z,14.23
2018-11-04T13:51:55.105Z,14.50
2018-11-04T13:54:26.833Z,13.37
2018-11-04T13:56:58.404Z,13.73
2018-11-04T13:59:30.844Z,14.37
2018-11-04T14:02:03.117Z,14.30
2018-11-04T14:04:35.710Z,15.97
2018-11-04T14:07:07.451Z,15.13
2018-11-04T14:09:40.118Z,15.67
2018-11-04T14:12:14.007Z,15.70
2018-11-04T14:14:46.195Z,16.37
2018-11-04T14:17:18.581Z,17.77
2018-11-04T14:19:51.023Z,20.30
2018-11-04T14:22:22.923Z,18.00
2018-11-04T14:24:59.241Z,19.13
2018-11-04T14:27:31.383Z,19.27
2018-11-04T14:30:03.110Z,19.67
2018-11-04T14:32:34.709Z,20.67
2018-11-04T14:35:07.706Z,21.70
2018-11-04T14:37:41.214Z,20.57
2018-11-04T14:40:14.321Z,20.77
2018-11-04T14:42:46.403Z,20.97
2018-11-04T14:45:18.651Z,22.37
2018-11-04T14:47:51.576Z,20.60
2018-11-04T14:50:23.105Z,21.73
2018-11-04T14:52:55.095Z,19.17
2018-11-04T14:55:27.377Z,20.43
2018-11-04T14:57:59.016Z,21.63
2018-11-04T15:00:35.233Z,20.60
2018-11-04T15:03:08.446Z,19.90
2018-11-04T15:05:45.093Z,20.07
2018-11-04T15:08:16.945Z,19.60
2018-11-04T15:10:49.343Z,20.63
2018-11-04T15:13:21.802Z,19.63
2018-11-04T15:15:54.975Z,19.33
2018-11-04T15:18:27.778Z,19.83
2018-11-04T15:21:00.757Z,22.67
2018-11-04T15:23:33.447Z,21.17
2018-11-04T15:26:05.763Z,20.97
2018-11-04T15:28:37.196Z,21.80
2018-11-04T15:31:08.785Z,22.83
2018-11-04T15:33:41.122Z,23.63
2018-11-04T15:36:13.674Z,23.20
2018-11-04T15:38:46.643Z,21.83
2018-11-04T15:41:18.476Z,23.03
2018-11-04T15:43:50.759Z,22.17
2018-11-04T15:46:22.918Z,21.77
2018-11-04T15:48:54.699Z,22.63
2018-11-04T15:51:27.081Z,21.50
2018-11-04T15:53:59.925Z,21.93
2018-11-04T15:56:31.715Z,23.93
2018-11-04T15:59:03.481Z,22.03
2018-11-04T16:01:35.192Z,23.27
2018-11-04T16:04:07.595Z,24.37
2018-11-04T16:06:39.262Z,22.67
2018-11-04T16:09:10.745Z,24.83
2018-11-04T16:11:43.452Z,24.00
2018-11-04T16:14:15.179Z,25.07
2018-11-04T16:16:47.059Z,26.47
2018-11-04T16:19:19.452Z,24.03
2018-11-04T16:21:52.595Z,24.43
2018-11-04T16:24:24.221Z,23.87
2018-11-04T16:26:56.727Z,24.47
2018-11-04T16:29:28.658Z,25.90
2018-11-04T16:32:01.150Z,25.30
2018-11-04T16:34:32.689Z,25.97
2018-11-04T16:37:04.133Z,27.43
2018-11-04T16:39:36.471Z,25.17
2018-11-04T16:42:08.813Z,25.47
2018-11-04T16:44:40.447Z,26.10
2018-11-04T16:47:12.019Z,29.57
2018-11-04T16:49:44.309Z,30.17
2018-11-04T16:52:16.751Z,29.77
2018-11-04T16:54:49.091Z,27.57
2018-11-04T16:57:21.863Z,25.50
2018-11-04T16:59:54.446Z,26.13
2018-11-04T17:02:26.069Z,26.10
2018-11-04T17:04:59.875Z,25.87
2018-11-04T17:07:32.165Z,28.07
2018-11-04T17:10:04.918Z,30.50
2018-11-04T17:12:36.533Z,26.87
2018-11-04T17:15:10.281Z,26.90
2018-11-04T17:17:42.741Z,27.23
2018-11-04T17:20:18.072Z,25.50
2018-11-04T17:22:50.119Z,27.50
2018-11-04T17:25:22.514Z,27.57
2018-11-04T17:27:54.760Z,26.93
2018-11-04T17:30:27.628Z,27.57
2018-11-04T17:32:59.263Z,30.37
2018-11-04T17:35:32.509Z,30.33
2018-11-04T17:38:05.006Z,32.27
2018-11-04T17:40:36.629Z,33.00
2018-11-04T17:43:08.202Z,35.20
2018-11-04T17:45:40.441Z,46.53
2018-11-04T17:48:15.333Z,40.33
2018-11-04T17:50:47.088Z,42.47
2018-11-04T17:53:19.385Z,48.73
2018-11-04T17:55:51.829Z,43.30
2018-11-04T17:58:23.333Z,41.77
2018-11-04T18:00:55.259Z,42.27
2018-11-04T18:03:27.657Z,38.17
2018-11-04T18:05:59.899Z,38.37
2018-11-04T18:08:31.975Z,45.90
2018-11-04T18:11:03.794Z,40.53
2018-11-04T18:13:36.084Z,41.37
2018-11-04T18:16:07.998Z,37.60
2018-11-04T18:18:39.724Z,36.53
2018-11-04T18:21:11.403Z,35.80
2018-11-04T18:23:43.183Z,39.07
2018-11-04T18:26:15.632Z,37.87
2018-11-04T18:28:47.491Z,39.33
2018-11-04T18:31:19.277Z,34.90
2018-11-04T18:33:51.604Z,34.60
2018-11-04T18:36:23.267Z,35.80
2018-11-04T18:38:54.863Z,36.43
2018-11-04T18:41:27.763Z,35.70
2018-11-04T18:44:00.073Z,35.47
2018-11-04T18:46:31.831Z,38.40
2018-11-04T18:49:03.235Z,40.10
2018-11-04T18:51:35.081Z,38.30
2018-11-04T18:54:11.870Z,37.53
2018-11-04T18:56:43.545Z,37.60
2018-11-04T18:59:15.854Z,38.37
2018-11-04T19:01:48.199Z,38.37
2018-11-04T19:04:19.061Z,43.40
2018-11-04T19:06:50.744Z,41.07
2018-11-04T19:09:22.283Z,39.80
2018-11-04T19:11:55.184Z,47.23
2018-11-04T19:14:28.174Z,50.20
2018-11-04T19:16:59.867Z,49.23
2018-11-04T19:19:31.804Z,46.90
2018-11-04T19:22:04.020Z,41.97
2018-11-04T19:24:35.619Z,40.60
2018-11-04T19:27:07.269Z,41.27
2018-11-04T19:29:39.314Z,40.10
2018-11-04T19:32:13.659Z,39.30
2018-11-04T19:34:45.191Z,40.97
2018-11-04T19:37:18.974Z,39.63
2018-11-04T19:39:51.941Z,39.00
2018-11-04T19:42:23.589Z,40.23
2018-11-04T19:44:55.415Z,42.07
2018-11-04T19:47:27.480Z,41.67
2018-11-04T19:49:59.732Z,40.77
2018-11-04T19:52:31.923Z,39.37
2018-11-04T19:55:03.445Z,42.87
2018-11-04T19:57:35.777Z,43.80
2018-11-04T20:00:13.781Z,45.00
2018-11-04T20:02:45.253Z,47.20
2018-11-04T20:05:16.792Z,41.77
2018-11-04T20:07:49.237Z,42.23
2018-11-04T20:10:20.853Z,40.00
2018-11-04T20:12:57.521Z,42.07
2018-11-04T20:15:29.821Z,42.10
2018-11-04T20:18:10.357Z,41.50
2018-11-04T20:20:41.935Z,41.27
2018-11-04T20:23:13.362Z,40.20
2018-11-04T20:25:50.589Z,39.93
2018-11-04T20:28:22.487Z,41.87
2018-11-04T20:30:54.040Z,38.90
2018-11-04T20:33:26.425Z,39.80
2018-11-04T20:35:58.870Z,39.60
2018-11-04T20:38:35.475Z,39.77
2018-11-04T20:41:11.964Z,38.40
2018-11-04T20:43:44.559Z,41.33
2018-11-04T20:46:15.139Z,40.23
2018-11-04T20:48:52.263Z,39.87
2018-11-04T20:51:25.079Z,38.93
2018-11-04T20:53:57.359Z,39.00
2018-11-04T20:56:33.931Z,37.93
2018-11-04T20:59:05.777Z,37.77
2018-11-04T21:01:38.037Z,38.83
2018-11-04T21:04:18.502Z,40.53
2018-11-04T21:06:51.309Z,38.23
2018-11-04T21:09:23.077Z,41.00
2018-11-04T21:11:54.956Z,40.40
2018-11-04T21:14:27.234Z,40.50
2018-11-04T21:16:58.925Z,37.43
2018-11-04T21:19:31.219Z,42.00
2018-11-04T21:22:03.441Z,37.93
2018-11-04T21:24:35.049Z,39.30
2018-11-04T21:27:07.358Z,38.40
2018-11-04T21:29:40.377Z,37.87
2018-11-04T21:32:14.151Z,37.90
2018-11-04T21:34:45.715Z,38.73
2018-11-04T21:37:17.283Z,38.87
2018-11-04T21:39:49.234Z,38.30
2018-11-04T21:42:22.037Z,39.60
2018-11-04T21:44:54.125Z,38.63
2018-11-04T21:47:26.030Z,37.23
2018-11-04T21:49:58.441Z,38.27
2018-11-04T21:52:29.895Z,38.00
2018-11-04T21:55:01.417Z,38.20
2018-11-04T21:57:33.646Z,38.87
2018-11-04T22:00:07.753Z,41.03
2018-11-04T22:02:39.244Z,40.23
2018-11-04T22:05:11.995Z,41.13
2018-11-04T22:07:44.901Z,42.37
2018-11-04T22:10:16.462Z,41.67
2018-11-04T22:12:48.126Z,41.47
2018-11-04T22:15:20.499Z,42.67
2018-11-04T22:17:52.547Z,42.50
2018-11-04T22:20:24.507Z,44.23
2018-11-04T22:22:55.917Z,42.30
2018-11-04T22:25:28.241Z,40.80
2018-11-04T22:28:00.295Z,41.70
2018-11-04T22:30:31.591Z,41.73
2018-11-04T22:33:03.097Z,41.77
2018-11-04T22:35:34.717Z,41.20
2018-11-04T22:38:09.123Z,42.00
2018-11-04T22:40:40.881Z,42.43
2018-11-04T22:43:12.588Z,43.90
2018-11-04T22:45:44.873Z,43.00
2018-11-04T22:48:15.715Z,41.50
2018-11-04T22:50:48.703Z,41.43
2018-11-04T22:53:20.121Z,39.83
2018-11-04T22:55:52.605Z,39.17
2018-11-04T22:58:24.229Z,39.07
2018-11-04T23:01:00.853Z,38.87
2018-11-04T23:03:32.563Z,41.40
2018-11-04T23:06:06.853Z,39.43
2018-11-04T23:08:39.388Z,39.80
2018-11-04T23:11:11.207Z,40.23
2018-11-04T23:13:43.381Z,38.90
2018-11-04T23:16:13.771Z,39.00
2018-11-04T23:18:45.216Z,38.50
2018-11-04T23:21:16.790Z,41.30
2018-11-04T23:23:48.968Z,39.97
2018-11-04T23:26:20.413Z,39.20
2018-11-04T23:28:51.880Z,38.63
2018-11-04T23:31:23.385Z,40.63
2018-11-04T23:33:54.997Z,41.23
2018-11-04T23:36:26.382Z,39.90
2018-11-04T23:38:57.929Z,38.80
2018-11-04T23:41:29.897Z,39.03
2018-11-04T23:44:01.934Z,38.33
2018-11-04T23:46:33.067Z,37.80
2018-11-04T23:49:04.625Z,39.10
2018-11-04T23:51:36.593Z,38.53
2018-11-04T23:54:12.232Z,37.97
2018-11-04T23:56:48.064Z,37.50
2018-11-04T23:59:19.357Z,41.13
